Terminal Aerodrome Forecast
Issued by NWS

Home | Current Version | Previous Version | Text Only | Print | Product List | Glossary On
Versions: 1 2 3 4 5 6 7 8 9 10 11 12 13 14 15
000
FTAK31 PAJN 251126
TAFAYA
TAF
PAYA 251126Z 2512/2612 08005KT 6SM -RA BR OVC015
      TEMPO 2512/2515 3SM -RA BR BKN004
     FM251500 VRB03KT 6SM -RA BR BKN025 OVC050
     FM251900 VRB03KT P6SM SCT025 BKN050
     FM252300 34004KT P6SM SCT050
      AMD LTD TO CLD VIS AND WIND 2601/2609=

USA.gov is the U.S. government's official web portal to all federal, state and local government web resources and services.